Flight Track Log - Related Links

Times and Time Zones

All times are in EDT time to prevent confusion due to time zone crossing. See the EJM918 flight status page for this flight to view local times or setup timezone preferences in your user account.

Time Position Orientation Groundspeed Altitude Reporting Facility
EDT Latitude Longitude Course Direction KTS MPH feet Rate Location/Type
Mon 12:26:37 PM 41.1066 -73.8013 298° West 237 273 6,300  Level FlightAware ADS-B
Mon 12:26:41 PM 41.1099 -73.8063 311° West 247 284 6,500 1,846 Climbing FlightAware ADS-B
Mon 12:27:29 PM 41.1610 -73.8220 347° North 279 321 7,900 3,094 Climbing FlightAware ADS-B
Mon 12:27:45 PM 41.1770 -73.7810 63° Northeast 306 352 9,800 3,243 Climbing FlightAware ADS-B
Mon 12:28:06 PM 41.1950 -73.7450 56° Northeast 333 383 9,900 130 Climbing FlightAware ADS-B
Mon 12:28:31 PM 41.2190 -73.7000 55° Northeast 364 419 9,900  Level FlightAware ADS-B
Mon 12:30:01 PM 41.3170 -73.5330 52° Northeast 378 435 9,900  Level FlightAware ADS-B
Mon 12:30:40 PM 41.3570 -73.4790 45° Northeast 377 434 9,900  Level FlightAware ADS-B
Mon 12:31:15 PM 41.3940 -73.4300 45° Northeast 377 434 9,900  Level FlightAware ADS-B
Mon 12:31:39 PM 41.4190 -73.3960 46° Northeast 377 434 9,900  Level FlightAware ADS-B
Mon 12:32:03 PM 41.4440 -73.3630 45° Northeast 377 434 9,900 100 Level FlightAware ADS-B
Mon 12:32:39 PM 41.5075 -73.2772 45° Northeast 380 437 10,000 104 Climbing Boston Center
Mon 12:33:58 PM 41.5958 -73.1314 51° Northeast 387 445 10,100 -79 Climbing Boston Center
Mon 12:35:11 PM 41.6550 -72.9958 60° Northeast 323 372 9,800 -1,038 Descending Boston Center
Mon 12:36:11 PM 41.6992 -72.8989 59° Northeast 299 344 7,800 -1,878 Descending Boston Center
Mon 12:37:06 PM 41.7350 -72.8183 59° Northeast 297 342 6,200 -1,500 Descending Boston Center
Mon 12:38:07 PM 41.7644 -72.7211 68° East 265 305 4,900 -1,304 Descending Boston Center
Mon 12:39:01 PM 41.7750 -72.6461 79° East 238 274 3,700 -887 Descending Boston Center
Mon 12:40:02 PM 41.7875 -72.5681 78° East 202 232 3,200 -593 Descending Boston Center
Mon 12:42:03 PM 41.8647 -72.5933 346° North 170 196 1,900 -702 Descending Boston Center
Mon 12:43:10 PM 41.8958 -72.6408 311° West 158 182 1,000 -703 Descending Boston Center
Mon 12:44:11 PM 41.9228 -72.6744 317° Northwest 126 145 400 -590 Descending Boston Center
Mon 12:46:00 PM 41.9333 -72.6833 45° Northeast  Level FlightAware Approximate

Login

Don't have an account? Register now (free) for customized features, flight alerts, and more!